Time;durP1;ratioP1;P1;durP2;ratioP2;P2;SDS_P1;SDS_P2;PMS_P1;PMS_P2;Temp;Humidity;BMP_temperature;BMP_pressure;BME280_temperature;BME280_humidity;BME280_pressure;Samples;Min_cycle;Max_cycle;Signal;HPM_P1;HPM_P2
2023/10/01 00:01:36;;;;;;;1.20;0.90;;;;;;;22.42;47.92;101460.22;4613048;27;20103;-64
2023/10/01 00:03:46;;;;;;;1.55;1.10;;;;;;;22.42;47.24;101457.34;4613672;27;20874;-64
2023/10/01 00:05:58;;;;;;;1.05;0.90;;;;;;;22.43;47.43;101459.00;4615013;27;20031;-64
2023/10/01 00:08:12;;;;;;;1.08;0.90;;;;;;;22.41;47.65;101449.91;4612361;27;20059;-64
2023/10/01 00:10:22;;;;;;;1.50;1.10;;;;;;;22.36;47.57;101441.53;4613384;27;20118;-64
2023/10/01 00:12:33;;;;;;;1.40;1.00;;;;;;;22.44;47.58;101458.66;4613642;27;20670;-64
2023/10/01 00:14:43;;;;;;;1.23;0.90;;;;;;;22.41;47.47;101447.03;4613938;27;20107;-64
2023/10/01 00:16:54;;;;;;;1.92;0.95;;;;;;;22.42;47.44;101448.72;4614687;27;20031;-64
2023/10/01 00:19:05;;;;;;;0.90;0.85;;;;;;;22.44;47.56;101466.47;4614124;27;20035;-64
2023/10/01 00:21:16;;;;;;;1.25;0.90;;;;;;;22.38;47.46;101450.63;4614727;27;20043;-64
2023/10/01 00:23:26;;;;;;;1.10;1.00;;;;;;;22.42;47.73;101451.59;4613906;27;20554;-64
2023/10/01 00:25:37;;;;;;;1.42;0.95;;;;;;;22.37;48.04;101437.44;4611200;27;20032;-64
2023/10/01 00:27:47;;;;;;;1.42;1.00;;;;;;;22.37;47.66;101437.44;4613392;27;20051;-64
2023/10/01 00:29:57;;;;;;;1.58;0.90;;;;;;;22.36;47.27;101436.59;4613630;27;20382;-64
2023/10/01 00:32:08;;;;;;;1.05;0.90;;;;;;;22.41;47.28;101438.38;4613819;27;20035;-64
2023/10/01 00:34:19;;;;;;;1.05;0.90;;;;;;;22.37;47.79;101435.41;4614543;27;20023;-64
2023/10/01 00:36:29;;;;;;;1.65;0.90;;;;;;;22.38;47.32;101433.34;4614929;27;20646;-64
2023/10/01 00:38:40;;;;;;;1.45;1.00;;;;;;;22.38;47.89;101434.22;4614448;27;20545;-64
2023/10/01 00:40:50;;;;;;;1.02;0.90;;;;;;;22.33;47.78;101420.06;4596079;27;20093;-64
2023/10/01 00:43:04;;;;;;;1.20;1.00;;;;;;;22.40;47.67;101436.72;4613753;27;20018;-64
2023/10/01 00:45:14;;;;;;;1.23;0.88;;;;;;;22.34;47.61;101418.88;4612750;27;20028;-64
2023/10/01 00:47:26;;;;;;;1.30;0.93;;;;;;;22.34;47.33;101418.03;4613529;27;20062;-64
2023/10/01 00:49:46;;;;;;;1.05;0.90;;;;;;;22.40;47.23;101440.44;4615454;27;20067;-64
2023/10/01 00:51:56;;;;;;;1.02;0.90;;;;;;;22.35;47.13;101426.31;4613183;27;20030;-64
2023/10/01 00:54:10;;;;;;;1.17;0.80;;;;;;;22.37;47.50;101431.69;4615020;27;20043;-64
2023/10/01 00:56:21;;;;;;;1.20;0.90;;;;;;;22.37;47.71;101420.19;4613858;27;20063;-64
2023/10/01 00:58:31;;;;;;;1.00;0.90;;;;;;;22.38;47.51;101410.34;4601792;27;20966;-64
2023/10/01 01:00:45;;;;;;;1.30;1.05;;;;;;;22.39;47.26;101418.63;4612874;27;20038;-64
2023/10/01 01:02:57;;;;;;;1.20;1.00;;;;;;;22.38;47.24;101422.69;4616726;27;20027;-64
2023/10/01 01:05:20;;;;;;;1.55;1.20;;;;;;;22.39;47.34;101417.81;4623748;27;20036;-64
2023/10/01 01:07:32;;;;;;;1.20;1.10;;;;;;;22.38;46.84;101427.59;4617222;27;20058;-64
2023/10/01 01:09:43;;;;;;;1.08;0.80;;;;;;;22.36;47.20;101427.16;4615217;27;20188;-64
2023/10/01 01:11:54;;;;;;;1.58;1.00;;;;;;;22.34;46.79;101429.53;4616455;27;20112;-65
2023/10/01 01:14:04;;;;;;;1.25;1.10;;;;;;;22.37;47.35;101437.44;4616433;27;20031;-64
2023/10/01 01:16:19;;;;;;;0.88;0.80;;;;;;;22.39;47.08;101435.06;4617446;27;20043;-64
2023/10/01 01:18:34;;;;;;;1.33;0.88;;;;;;;22.30;47.40;101417.06;4616686;27;20023;-64
2023/10/01 01:20:45;;;;;;;2.17;0.93;;;;;;;22.33;47.78;101425.81;4604670;27;20652;-64
2023/10/01 01:22:56;;;;;;;1.60;0.90;;;;;;;22.37;47.75;101440.31;4616729;27;20059;-64
2023/10/01 01:25:19;;;;;;;1.02;0.90;;;;;;;22.36;47.14;101435.78;4602822;27;20059;-64
2023/10/01 01:27:31;;;;;;;1.95;1.13;;;;;;;22.36;47.61;101432.91;4616350;27;20019;-64
2023/10/01 01:29:44;;;;;;;1.17;1.00;;;;;;;22.36;47.72;101430.03;4615296;27;20046;-64
2023/10/01 01:32:13;;;;;;;1.20;1.00;;;;;;;22.34;47.66;101432.41;4616237;27;20076;-64
2023/10/01 01:34:24;;;;;;;1.10;1.00;;;;;;;22.34;47.54;101439.03;4605371;27;20031;-64
2023/10/01 01:36:37;;;;;;;1.83;1.00;;;;;;;22.32;47.77;101424.16;4617336;27;20037;-64
2023/10/01 01:39:13;;;;;;;0.98;0.90;;;;;;;22.30;47.32;101408.44;4616390;27;20030;-64
2023/10/01 01:41:28;;;;;;;1.00;0.90;;;;;;;22.32;47.24;101411.78;4604881;27;20604;-64
2023/10/01 01:43:39;;;;;;;1.73;1.00;;;;;;;22.34;47.76;101409.41;4616181;27;20601;-64
2023/10/01 01:46:00;;;;;;;1.50;1.08;;;;;;;22.33;47.39;101404.84;4616803;27;20034;-64
2023/10/01 01:50:41;;;;;;;1.58;1.00;;;;;;;22.36;47.56;101409.91;4618933;27;21094;-64
2023/10/01 01:53:03;;;;;;;1.10;0.90;;;;;;;22.34;47.84;101404.50;4617994;27;20031;-64
2023/10/01 01:55:29;;;;;;;1.23;0.80;;;;;;;22.32;47.31;101397.41;4605501;27;20027;-64
2023/10/01 01:57:39;;;;;;;0.82;0.73;;;;;;;22.31;47.86;101392.88;4618021;27;20034;-64
2023/10/01 01:59:50;;;;;;;1.23;0.90;;;;;;;22.36;47.72;101409.91;4616926;27;20032;-64
2023/10/01 02:02:01;;;;;;;1.15;0.95;;;;;;;22.33;47.44;101401.94;4617422;27;20531;-64
2023/10/01 02:04:12;;;;;;;1.50;1.10;;;;;;;22.36;47.84;101399.19;4623035;27;20035;-64
2023/10/01 02:06:28;;;;;;;1.15;0.90;;;;;;;22.31;47.45;101396.56;4618538;27;20120;-64
2023/10/01 02:08:59;;;;;;;1.42;1.10;;;;;;;22.30;47.63;101391.16;4616933;27;20031;-64
2023/10/01 02:11:10;;;;;;;0.80;0.80;;;;;;;22.34;47.49;101397.91;4616666;27;20039;-64
2023/10/01 02:13:24;;;;;;;0.77;0.77;;;;;;;22.33;47.82;101393.31;4618315;27;20031;-64
2023/10/01 02:15:35;;;;;;;1.20;1.00;;;;;;;22.33;47.83;101396.19;4631984;27;20518;-64
2023/10/01 02:17:48;;;;;;;1.42;1.00;;;;;;;22.32;47.96;101388.78;4616697;27;20031;-64
2023/10/01 02:20:00;;;;;;;1.40;1.02;;;;;;;22.16;48.09;101352.13;4603864;27;20039;-64
2023/10/01 02:22:12;;;;;;;1.73;1.10;;;;;;;22.35;47.86;101379.44;4616093;27;20110;-64
2023/10/01 02:24:23;;;;;;;1.00;0.90;;;;;;;22.32;47.82;101371.53;4617440;27;20609;-64
2023/10/01 02:26:34;;;;;;;1.20;0.98;;;;;;;22.33;47.68;101381.81;4617040;27;20070;-64
2023/10/01 02:28:46;;;;;;;1.25;1.00;;;;;;;22.31;48.05;101369.88;4615817;27;20023;-64
2023/10/01 02:30:57;;;;;;;1.50;1.00;;;;;;;22.32;48.01;101372.38;4617178;27;20960;-64
2023/10/01 02:33:20;;;;;;;1.50;1.00;;;;;;;22.31;47.80;101361.22;4615916;27;20080;-64
2023/10/01 02:35:36;;;;;;;1.15;1.02;;;;;;;22.32;47.84;101372.38;4617393;27;20937;-64
2023/10/01 02:37:47;;;;;;;1.08;0.93;;;;;;;22.32;47.71;101372.38;4617504;27;20039;-64
2023/10/01 02:39:59;;;;;;;1.17;1.00;;;;;;;22.28;48.03;101371.41;4622972;27;20177;-64
2023/10/01 02:42:20;;;;;;;1.45;1.08;;;;;;;22.28;47.73;101379.22;4615654;27;20032;-65
2023/10/01 02:44:31;;;;;;;1.52;1.10;;;;;;;22.31;47.45;101385.06;4606155;27;20024;-64
2023/10/01 02:46:42;;;;;;;1.88;1.15;;;;;;;22.29;47.70;101383.75;4631307;27;20066;-64
2023/10/01 02:48:59;;;;;;;1.45;1.00;;;;;;;22.33;47.69;101391.28;4615638;27;20035;-64
2023/10/01 02:51:15;;;;;;;;;;;;;;;22.32;47.66;101383.88;4617114;27;20035;-64
2023/10/01 02:53:26;;;;;;;1.13;0.93;;;;;;;22.28;47.83;101367.72;4616391;27;19911;-64
2023/10/01 02:55:44;;;;;;;1.30;0.90;;;;;;;22.28;48.08;101368.53;4613676;27;20100;-64
2023/10/01 02:58:02;;;;;;;1.73;0.90;;;;;;;22.30;47.84;101369.00;4614977;27;20036;-64
2023/10/01 03:02:30;;;;;;;1.27;0.90;;;;;;;22.27;47.99;101364.00;4606640;27;20077;-64
2023/10/01 03:04:40;;;;;;;2.10;1.10;;;;;;;22.26;48.28;101370.09;4615757;27;20039;-64
2023/10/01 03:06:54;;;;;;;1.23;1.05;;;;;;;22.26;48.24;101362.31;4615705;27;20023;-64
2023/10/01 03:09:09;;;;;;;1.48;1.02;;;;;;;22.28;48.20;101368.53;4604127;27;20575;-64
2023/10/01 03:11:22;;;;;;;1.13;0.90;;;;;;;22.29;48.29;101367.34;4615082;27;20152;-64
2023/10/01 03:13:33;;;;;;;0.93;0.82;;;;;;;22.26;48.21;101370.09;4616767;27;20301;-64
2023/10/01 03:16:40;;;;;;;1.48;1.00;;;;;;;22.29;48.20;101366.50;4603840;27;21045;-64
2023/10/01 03:22:53;;;;;;;1.40;1.00;;;;;;;22.28;48.43;101377.16;4614373;27;20146;-64
2023/10/01 03:25:11;;;;;;;1.20;1.00;;;;;;;22.20;48.67;101364.59;4615999;27;20036;-64
2023/10/01 03:27:26;;;;;;;1.25;1.00;;;;;;;22.29;48.38;101383.75;4605708;27;20588;-64
2023/10/01 03:29:36;;;;;;;1.00;0.80;;;;;;;22.29;48.10;101384.59;4617187;27;21660;-65
2023/10/01 03:31:47;;;;;;;1.02;0.90;;;;;;;22.29;48.19;101393.22;4616723;27;20073;-64
2023/10/01 03:33:58;;;;;;;1.17;1.00;;;;;;;22.29;48.30;101389.50;4617864;27;20046;-64
2023/10/01 03:36:11;;;;;;;0.98;0.90;;;;;;;22.27;48.10;101381.25;4616983;27;21214;-64
2023/10/01 03:38:22;;;;;;;1.05;0.90;;;;;;;22.28;48.11;101384.97;4617353;27;20031;-64
2023/10/01 03:40:36;;;;;;;1.38;1.00;;;;;;;22.23;48.47;101378.25;4613305;27;20035;-64
2023/10/01 03:42:51;;;;;;;1.17;1.00;;;;;;;22.25;48.50;101394.31;4615209;27;20895;-64
2023/10/01 03:47:11;;;;;;;1.63;1.10;;;;;;;22.25;48.91;101388.56;4617236;27;20479;-64
2023/10/01 03:49:37;;;;;;;1.00;0.80;;;;;;;22.26;48.46;101387.34;4617399;27;20434;-65
2023/10/01 03:51:58;;;;;;;1.20;1.10;;;;;;;22.25;48.49;101382.81;4615664;27;20031;-64
2023/10/01 03:54:13;;;;;;;1.25;0.80;;;;;;;22.25;48.78;101379.94;4616522;27;20035;-64
2023/10/01 03:56:24;;;;;;;1.20;0.90;;;;;;;22.22;48.62;101372.84;4615774;27;21611;-64
2023/10/01 03:58:36;;;;;;;1.13;1.02;;;;;;;22.24;48.91;101376.22;4614176;27;20113;-64
2023/10/01 04:00:53;;;;;;;1.02;0.90;;;;;;;22.23;49.12;101370.81;4615607;27;20114;-64
2023/10/01 04:03:04;;;;;;;1.50;1.10;;;;;;;22.25;48.96;101377.88;4615376;27;20091;-64
2023/10/01 04:05:30;;;;;;;1.40;1.00;;;;;;;22.28;49.04;101382.09;4616026;27;20088;-64
2023/10/01 04:07:43;;;;;;;1.52;1.10;;;;;;;22.26;49.21;101378.72;4614557;27;21117;-64
2023/10/01 04:09:53;;;;;;;1.00;0.80;;;;;;;22.21;48.88;101380.63;4613537;27;20028;-64
2023/10/01 04:12:19;;;;;;;1.13;1.00;;;;;;;22.21;48.94;101376.94;4613835;27;20092;-64
2023/10/01 04:14:30;;;;;;;1.48;1.10;;;;;;;22.23;48.88;101379.44;4614721;27;20027;-64
2023/10/01 04:16:46;;;;;;;1.73;1.10;;;;;;;22.24;48.73;101387.72;4616448;27;20039;-64
2023/10/01 04:18:59;;;;;;;1.52;0.95;;;;;;;22.25;48.87;101394.31;4615233;27;20889;-64
2023/10/01 04:23:29;;;;;;;1.15;1.02;;;;;;;22.26;48.75;101390.22;4616920;27;20036;-64
2023/10/01 04:25:40;;;;;;;1.48;1.10;;;;;;;22.25;49.20;101382.81;4615807;27;20073;-64
2023/10/01 04:27:50;;;;;;;1.67;1.00;;;;;;;22.24;48.71;101381.97;4616269;27;20071;-64
2023/10/01 04:30:07;;;;;;;1.40;1.10;;;;;;;22.26;48.99;101384.47;4615250;27;20778;-64
2023/10/01 04:32:18;;;;;;;1.23;1.02;;;;;;;22.22;49.02;101387.22;4604897;27;20039;-64
2023/10/01 04:34:29;;;;;;;1.00;0.90;;;;;;;22.23;49.05;101375.38;4615216;27;20038;-64
2023/10/01 04:36:42;;;;;;;1.55;1.00;;;;;;;22.24;49.00;101381.97;4616093;27;20065;-64
2023/10/01 04:39:00;;;;;;;1.48;1.25;;;;;;;22.25;49.00;101377.06;4620177;27;20038;-64
2023/10/01 04:41:18;;;;;;;0.90;0.90;;;;;;;22.20;48.97;101375.25;4618308;27;20127;-64
2023/10/01 04:43:34;;;;;;;1.33;1.02;;;;;;;22.25;49.05;101382.81;4618985;27;20078;-64
2023/10/01 04:45:45;;;;;;;1.50;1.15;;;;;;;22.18;49.08;101366.16;4607449;27;20142;-64
2023/10/01 04:47:56;;;;;;;1.42;0.95;;;;;;;22.14;49.28;101357.41;4618842;27;20613;-64
2023/10/01 04:50:07;;;;;;;1.63;1.23;;;;;;;22.25;49.33;101379.94;4620051;27;20035;-64
2023/10/01 04:52:19;;;;;;;1.73;1.00;;;;;;;22.20;49.35;101376.09;4620161;27;20049;-64
2023/10/01 04:54:29;;;;;;;1.08;0.90;;;;;;;22.20;48.98;101373.22;4620207;27;20023;-64
2023/10/01 04:56:39;;;;;;;1.48;1.15;;;;;;;22.19;49.19;101368.66;4617445;27;20032;-64
2023/10/01 04:58:54;;;;;;;1.95;1.20;;;;;;;22.17;49.34;101373.94;4618258;27;20887;-64
2023/10/01 05:01:11;;;;;;;1.58;1.08;;;;;;;22.23;49.31;101384.00;4617908;27;20035;-64
2023/10/01 05:03:38;;;;;;;1.40;1.00;;;;;;;22.21;49.47;101389.25;4618836;27;20176;-64
2023/10/01 05:05:48;;;;;;;1.40;0.90;;;;;;;22.19;48.80;101382.19;4617151;27;20040;-64
2023/10/01 05:07:59;;;;;;;1.42;0.93;;;;;;;22.21;49.26;101383.50;4606616;27;20731;-64
2023/10/01 05:10:09;;;;;;;1.70;1.30;;;;;;;22.20;48.54;101389.63;4618837;27;20054;-64
2023/10/01 05:12:30;;;;;;;1.20;1.00;;;;;;;22.19;48.68;101385.91;4618761;27;20035;-64
2023/10/01 05:14:56;;;;;;;1.42;0.90;;;;;;;22.18;48.53;101383.41;4617570;27;20931;-64
2023/10/01 05:17:07;;;;;;;1.35;0.90;;;;;;;22.19;48.64;101385.91;4618089;27;20023;-64
2023/10/01 05:19:23;;;;;;;1.20;1.10;;;;;;;22.21;49.03;101383.50;4619041;27;20120;-64
2023/10/01 05:21:36;;;;;;;1.48;1.13;;;;;;;22.20;48.84;101372.34;4618677;27;20038;-64
2023/10/01 05:23:47;;;;;;;1.83;1.02;;;;;;;22.19;48.51;101380.16;4618057;27;20042;-64
2023/10/01 05:25:58;;;;;;;1.70;1.00;;;;;;;22.12;48.31;101368.41;4616531;27;20038;-64
2023/10/01 05:28:23;;;;;;;1.50;1.00;;;;;;;22.19;48.11;101380.16;4617175;27;20032;-64
2023/10/01 05:30:38;;;;;;;1.63;1.00;;;;;;;22.17;48.27;101388.31;4618477;27;20042;-64
2023/10/01 05:32:51;;;;;;;1.38;1.00;;;;;;;22.19;48.16;101393.69;4616646;27;20035;-64
2023/10/01 05:35:14;;;;;;;1.50;1.08;;;;;;;22.20;48.07;101387.59;4616672;27;20700;-64
2023/10/01 05:37:36;;;;;;;1.70;1.35;;;;;;;22.18;47.33;101394.91;4616137;27;20038;-64
2023/10/01 05:39:57;;;;;;;1.10;1.00;;;;;;;22.19;47.32;101397.44;4616401;27;20046;-64
2023/10/01 05:42:08;;;;;;;2.03;1.17;;;;;;;22.14;47.33;101382.44;4606061;27;20071;-64
2023/10/01 05:44:19;;;;;;;1.73;1.08;;;;;;;22.18;47.11;101394.91;4616650;27;20027;-64
2023/10/01 05:46:30;;;;;;;1.83;1.10;;;;;;;22.15;46.72;101396.44;4617556;27;20035;-64
2023/10/01 05:48:41;;;;;;;2.08;1.30;;;;;;;22.18;47.20;101395.72;4617405;27;20042;-64
2023/10/01 05:50:53;;;;;;;1.58;0.93;;;;;;;22.17;46.88;101398.97;4618656;27;20042;-64
2023/10/01 05:53:04;;;;;;;1.85;1.17;;;;;;;22.17;46.34;101394.06;4619508;27;20031;-64
2023/10/01 05:55:19;;;;;;;2.17;1.17;;;;;;;22.15;46.48;101404.25;4617275;27;20782;-64
2023/10/01 05:57:30;;;;;;;2.10;1.00;;;;;;;22.18;46.15;101403.53;4614319;27;20042;-64
2023/10/01 05:59:40;;;;;;;1.63;1.20;;;;;;;22.17;46.44;101399.81;4617166;27;20022;-64
2023/10/01 06:01:50;;;;;;;1.58;1.20;;;;;;;22.16;46.43;101406.78;4619002;27;20039;-64
2023/10/01 06:04:01;;;;;;;2.03;1.10;;;;;;;22.17;46.01;101410.47;4618646;27;20104;-64
2023/10/01 06:06:23;;;;;;;1.35;0.95;;;;;;;22.18;46.92;101407.22;4616745;27;20059;-64
2023/10/01 06:08:44;;;;;;;1.45;1.02;;;;;;;22.18;46.10;101415.84;4618294;27;20047;-64
2023/10/01 06:11:06;;;;;;;1.83;1.15;;;;;;;22.18;45.87;101424.47;4598030;27;20032;-64
2023/10/01 06:13:17;;;;;;;1.25;1.10;;;;;;;22.13;46.05;101410.38;4622159;27;20038;-64
2023/10/01 06:15:29;;;;;;;2.20;1.30;;;;;;;22.15;46.15;101413.69;4617620;27;20651;-64
2023/10/01 06:17:42;;;;;;;1.88;1.10;;;;;;;22.15;46.33;101419.44;4616732;27;20613;-64
2023/10/01 06:19:53;;;;;;;1.80;1.10;;;;;;;22.11;46.38;101407.00;4616890;27;20030;-64
2023/10/01 06:22:12;;;;;;;1.67;1.20;;;;;;;22.11;45.91;101415.63;4616499;27;20039;-65
2023/10/01 06:24:22;;;;;;;2.17;1.20;;;;;;;22.16;45.96;101415.41;4616897;27;20101;-63
2023/10/01 06:26:36;;;;;;;2.47;1.30;;;;;;;22.16;45.89;101408.78;4616941;27;20088;-63
2023/10/01 06:28:47;;;;;;;1.38;1.10;;;;;;;22.14;45.86;101406.28;4616927;27;20031;-63
2023/10/01 06:30:58;;;;;;;1.27;1.13;;;;;;;22.14;46.15;101397.66;4615969;27;20058;-63
2023/10/01 06:33:24;;;;;;;1.38;1.05;;;;;;;22.13;46.21;101404.63;4616035;27;20043;-63
2023/10/01 06:36:04;;;;;;;1.30;0.95;;;;;;;22.16;46.39;101415.41;4616330;27;20101;-63
2023/10/01 06:38:08;;;;;;;1.75;1.30;;;;;;;22.16;46.20;101415.41;4631703;27;20031;-63
2023/10/01 06:40:31;;;;;;;1.40;1.15;;;;;;;22.15;45.84;101407.13;4616643;27;20030;-64
2023/10/01 06:42:42;;;;;;;2.03;1.17;;;;;;;22.15;46.23;101404.25;4616548;27;20056;-66
2023/10/01 06:44:55;;;;;;;2.25;1.23;;;;;;;22.08;46.04;101401.97;4617047;27;20031;-63
2023/10/01 06:47:14;;;;;;;1.73;1.10;;;;;;;22.16;46.65;101405.91;4614876;27;20068;-63
2023/10/01 06:49:25;;;;;;;1.83;1.10;;;;;;;22.16;46.46;101409.66;4616232;27;20039;-63
2023/10/01 06:51:45;;;;;;;1.50;1.10;;;;;;;22.08;46.49;101395.38;4616272;27;20460;-63
2023/10/01 06:53:58;;;;;;;1.88;1.20;;;;;;;22.11;46.33;101406.16;4616200;27;20598;-63
2023/10/01 06:56:09;;;;;;;1.60;1.25;;;;;;;22.16;46.39;101412.53;4614595;27;20039;-63
2023/10/01 06:58:20;;;;;;;2.17;1.27;;;;;;;22.13;46.73;101401.75;4617047;27;20035;-63
2023/10/01 07:00:33;;;;;;;1.92;1.20;;;;;;;22.14;46.13;101406.28;4615788;27;20627;-63
2023/10/01 07:02:44;;;;;;;1.65;1.17;;;;;;;22.13;46.07;101406.66;4616041;27;20046;-63
2023/10/01 07:05:00;;;;;;;2.13;1.30;;;;;;;22.15;46.04;101404.25;4615725;27;20038;-63
2023/10/01 07:07:28;;;;;;;1.52;1.17;;;;;;;22.13;46.31;101410.38;4616168;27;20031;-63
2023/10/01 07:09:41;;;;;;;2.03;1.40;;;;;;;22.15;46.13;101410.00;4617806;27;20126;-63
2023/10/01 07:11:52;;;;;;;1.85;1.38;;;;;;;22.16;46.36;101411.69;4617084;27;20066;-63
2023/10/01 07:14:03;;;;;;;1.60;1.30;;;;;;;22.14;46.18;101406.28;4616775;27;20114;-64
2023/10/01 07:16:35;;;;;;;2.13;1.25;;;;;;;22.13;46.27;101404.63;4615048;27;20043;-64
2023/10/01 07:18:45;;;;;;;2.50;1.10;;;;;;;22.11;46.26;101409.03;4616260;27;20034;-64
2023/10/01 07:21:00;;;;;;;1.85;1.00;;;;;;;22.12;46.26;101413.56;4616294;27;20039;-62
2023/10/01 07:23:13;;;;;;;1.80;1.20;;;;;;;22.15;46.35;101422.31;4615939;27;20024;-63
2023/10/01 07:25:39;;;;;;;2.25;1.33;;;;;;;22.14;46.14;101416.94;4616070;27;20031;-63
2023/10/01 07:27:49;;;;;;;3.08;1.50;;;;;;;22.13;46.33;101419.00;4616122;27;20209;-63
2023/10/01 07:30:01;;;;;;;2.47;1.30;;;;;;;22.09;46.60;101415.13;4617003;27;20493;-63
2023/10/01 07:32:12;;;;;;;2.58;1.30;;;;;;;22.10;46.49;101419.69;4616538;27;20034;-64
2023/10/01 07:34:26;;;;;;;2.72;1.42;;;;;;;22.09;47.00;101414.28;4616097;27;20100;-64
2023/10/01 07:36:37;;;;;;;2.20;1.20;;;;;;;22.08;46.99;101412.63;4615636;27;20058;-64
2023/10/01 07:38:48;;;;;;;2.20;1.25;;;;;;;22.14;46.70;101422.69;4617449;27;20521;-64
2023/10/01 07:41:07;;;;;;;2.65;1.45;;;;;;;22.09;46.69;101412.25;4616609;27;20597;-64
2023/10/01 07:43:18;;;;;;;2.58;1.30;;;;;;;22.14;46.80;101416.94;4615997;27;20081;-64
2023/10/01 07:45:30;;;;;;;2.92;1.40;;;;;;;22.10;47.11;101413.94;4614947;27;20148;-64
2023/10/01 07:47:42;;;;;;;1.90;1.15;;;;;;;22.15;47.21;101413.69;4614648;27;20046;-64
2023/10/01 07:49:52;;;;;;;2.13;1.20;;;;;;;22.12;47.05;101402.91;4616609;27;20027;-63
2023/10/01 07:52:05;;;;;;;2.03;1.38;;;;;;;22.14;47.21;101408.31;4616606;27;20031;-64
2023/10/01 07:54:22;;;;;;;1.48;1.20;;;;;;;22.15;47.32;101407.94;4617548;27;20035;-66
2023/10/01 07:56:33;;;;;;;2.83;1.50;;;;;;;22.10;47.46;101404.50;4603529;27;20043;-64
2023/10/01 07:58:47;;;;;;;1.80;1.25;;;;;;;22.14;47.98;101412.03;4616421;27;20340;-64
2023/10/01 08:01:32;;;;;;;2.55;1.25;;;;;;;22.13;47.62;101418.16;4614018;27;20031;-64
2023/10/01 08:03:32;;;;;;;2.40;1.40;;;;;;;22.15;47.44;101422.31;4612125;27;20074;-64
2023/10/01 08:05:47;;;;;;;2.65;1.52;;;;;;;22.13;46.96;101426.78;4614887;27;20039;-64
2023/10/01 08:07:58;;;;;;;2.15;1.30;;;;;;;22.14;46.82;101426.41;4616604;27;20037;-64
2023/10/01 08:10:16;;;;;;;2.88;1.60;;;;;;;22.13;47.50;101433.38;4614724;27;20524;-64
2023/10/01 08:12:29;;;;;;;1.88;1.27;;;;;;;22.15;47.38;101425.19;4615846;27;20031;-64
2023/10/01 08:14:40;;;;;;;2.47;1.50;;;;;;;22.14;47.84;101429.28;4614607;27;20096;-64
2023/10/01 08:16:53;;;;;;;1.92;1.40;;;;;;;22.15;47.54;101428.06;4616449;27;20027;-64
2023/10/01 08:19:05;;;;;;;2.83;1.52;;;;;;;22.14;47.76;101432.16;4613702;27;20043;-64
2023/10/01 08:21:17;;;;;;;2.10;1.40;;;;;;;22.07;47.82;101431.91;4614441;27;20043;-64
2023/10/01 08:23:30;;;;;;;3.10;1.60;;;;;;;22.16;48.12;101432.66;4616095;27;20126;-64
2023/10/01 08:25:51;;;;;;;3.08;1.50;;;;;;;22.14;47.79;101432.16;4616722;27;20031;-65
2023/10/01 08:30:38;;;;;;;2.42;1.45;;;;;;;22.13;48.06;101418.16;4615203;27;20027;-64
2023/10/01 08:33:03;;;;;;;2.78;1.40;;;;;;;22.15;48.24;101418.63;4614976;27;20031;-64
2023/10/01 08:35:22;;;;;;;2.70;1.73;;;;;;;22.13;48.41;101412.41;4603008;27;20035;-64
2023/10/01 08:37:37;;;;;;;2.67;1.50;;;;;;;22.12;49.11;101414.41;4614991;27;20043;-64
2023/10/01 08:39:47;;;;;;;2.38;1.50;;;;;;;22.13;48.83;101416.13;4613239;27;20011;-64
2023/10/01 08:41:59;;;;;;;3.28;1.70;;;;;;;22.12;49.00;101408.66;4616411;27;20035;-64
2023/10/01 08:44:10;;;;;;;2.60;1.52;;;;;;;22.15;48.54;101412.88;4612244;27;20797;-64
2023/10/01 08:46:31;;;;;;;2.65;1.55;;;;;;;22.14;48.81;101412.03;4616020;27;20031;-64
2023/10/01 08:48:43;;;;;;;3.10;1.70;;;;;;;22.08;48.92;101410.59;4615556;27;20035;-64
2023/10/01 08:50:53;;;;;;;3.47;1.90;;;;;;;22.10;49.16;101413.13;4614865;27;20062;-64
2023/10/01 08:53:11;;;;;;;4.07;2.15;;;;;;;22.13;49.09;101421.88;4615791;27;20030;-64
2023/10/01 08:55:35;;;;;;;3.28;1.77;;;;;;;22.03;49.20;101402.19;4615713;27;20043;-64
2023/10/01 08:57:46;;;;;;;3.05;1.73;;;;;;;22.13;49.17;101410.38;4616042;27;20811;-64
2023/10/01 08:59:59;;;;;;;4.22;2.08;;;;;;;22.10;49.30;101405.31;4615812;27;20040;-64
2023/10/01 09:02:19;;;;;;;3.47;2.00;;;;;;;22.15;49.16;101405.06;4614551;27;20038;-64
2023/10/01 09:04:44;;;;;;;3.80;2.00;;;;;;;22.15;49.49;101407.94;4615174;27;20031;-64
2023/10/01 09:07:03;;;;;;;3.17;1.85;;;;;;;22.14;49.59;101412.03;4615126;27;20033;-64
2023/10/01 09:09:20;;;;;;;3.45;2.03;;;;;;;22.13;49.58;101404.63;4615191;27;20032;-64
2023/10/01 09:11:47;;;;;;;3.17;2.05;;;;;;;22.12;49.76;101413.56;4613823;27;20096;-64
2023/10/01 09:13:58;;;;;;;3.03;1.83;;;;;;;22.15;49.35;101425.19;4613627;27;20085;-64
2023/10/01 09:16:10;;;;;;;4.13;2.30;;;;;;;22.12;50.15;101417.28;4602979;27;20050;-64
2023/10/01 09:18:23;;;;;;;4.00;2.00;;;;;;;22.16;49.98;101432.66;4613640;27;20634;-64
2023/10/01 09:20:38;;;;;;;3.75;1.95;;;;;;;22.09;50.23;101417.16;4613952;27;20042;-64
2023/10/01 09:23:00;;;;;;;3.85;1.95;;;;;;;22.16;50.09;101426.06;4597212;27;20752;-64
2023/10/01 09:25:25;;;;;;;3.30;2.10;;;;;;;22.16;50.37;101429.78;4618401;27;20096;-65
2023/10/01 09:27:36;;;;;;;3.80;2.15;;;;;;;22.12;50.13;101410.69;4617887;27;20607;-64
2023/10/01 09:29:48;;;;;;;3.55;2.08;;;;;;;22.13;50.15;101415.28;4618028;27;20032;-62
2023/10/01 09:31:59;;;;;;;3.78;2.08;;;;;;;22.14;50.29;101411.19;4618912;27;20106;-62
2023/10/01 09:34:31;;;;;;;3.38;1.90;;;;;;;22.13;50.85;101406.66;4618812;27;20454;-62
2023/10/01 09:36:45;;;;;;;3.60;1.98;;;;;;;22.16;50.72;101415.41;4606727;27;20078;-63
2023/10/01 09:39:03;;;;;;;3.60;2.03;;;;;;;22.12;50.69;101417.28;4617122;27;20028;-63
2023/10/01 09:41:19;;;;;;;4.32;2.33;;;;;;;22.13;50.44;101421.88;4616830;27;20038;-62
2023/10/01 09:43:32;;;;;;;3.10;2.03;;;;;;;22.12;50.53;101411.53;4615939;27;20035;-63
2023/10/01 09:45:47;;;;;;;3.92;2.30;;;;;;;22.17;50.73;101410.47;4617695;27;20886;-63
2023/10/01 09:48:07;;;;;;;3.40;2.05;;;;;;;22.05;51.22;101391.19;4619157;27;20098;-64
2023/10/01 09:50:18;;;;;;;4.22;2.20;;;;;;;22.16;50.53;101408.78;4604942;27;20036;-64
2023/10/01 09:52:34;;;;;;;3.38;2.03;;;;;;;22.14;50.11;101406.28;4616849;27;20057;-63
2023/10/01 09:54:48;;;;;;;3.15;1.80;;;;;;;22.16;50.59;101400.19;4616075;27;20070;-63
2023/10/01 09:57:08;;;;;;;4.30;2.33;;;;;;;22.13;50.70;101400.88;4614581;27;20544;-64
2023/10/01 09:59:19;;;;;;;4.32;2.00;;;;;;;22.12;50.64;101397.16;4600047;27;20131;-63
2023/10/01 10:01:35;;;;;;;3.53;1.90;;;;;;;22.14;51.17;101397.66;4616313;27;20590;-63
2023/10/01 10:03:49;;;;;;;3.13;2.00;;;;;;;22.17;51.27;101402.69;4617113;27;20600;-64
2023/10/01 10:06:06;;;;;;;5.18;2.17;;;;;;;22.16;50.88;101392.41;4618044;27;20026;-64
2023/10/01 10:08:20;;;;;;;4.07;2.10;;;;;;;22.14;51.68;101373.81;4616774;27;20071;-63
2023/10/01 10:10:31;;;;;;;4.15;2.10;;;;;;;22.14;52.11;101383.28;4615419;27;20043;-64
2023/10/01 10:12:41;;;;;;;4.82;2.20;;;;;;;22.19;51.62;101390.81;4599513;27;20040;-63
2023/10/01 10:14:56;;;;;;;4.15;2.10;;;;;;;22.20;51.27;101395.38;4615937;27;20031;-64
2023/10/01 10:19:30;;;;;;;3.78;2.03;;;;;;;22.25;51.36;101405.81;4617220;27;20039;-64
2023/10/01 10:24:21;;;;;;;3.78;2.10;;;;;;;22.26;51.39;101395.97;4617468;27;20088;-64
2023/10/01 10:26:56;;;;;;;3.45;2.00;;;;;;;22.24;51.49;101381.97;4615921;27;20123;-64
2023/10/01 10:29:10;;;;;;;3.30;1.90;;;;;;;22.28;51.36;101387.84;4616511;27;20133;-66
2023/10/01 10:31:29;;;;;;;3.47;2.00;;;;;;;22.27;51.26;101378.38;4617370;27;20039;-63
2023/10/01 10:34:19;;;;;;;3.90;2.13;;;;;;;22.25;51.42;101372.13;4618190;27;20031;-64
2023/10/01 10:36:49;;;;;;;3.80;2.10;;;;;;;22.20;51.50;101358.84;4615181;27;20146;-64
2023/10/01 10:39:00;;;;;;;4.03;2.10;;;;;;;22.28;51.87;101376.34;4617121;27;20015;-64
2023/10/01 10:41:11;;;;;;;3.40;1.90;;;;;;;22.26;51.93;101372.97;4616355;27;20555;-64
2023/10/01 10:43:22;;;;;;;3.92;2.13;;;;;;;22.28;52.24;101377.16;4617034;27;20035;-63
2023/10/01 10:45:43;;;;;;;4.00;2.28;;;;;;;22.30;52.13;101376.78;4616268;27;20035;-64
2023/10/01 10:48:01;;;;;;;3.47;2.13;;;;;;;22.31;51.31;101381.38;4614445;27;20114;-64